sensor_id;sensor_type;location;lat;lon;timestamp;pressure;altitude;pressure_sealevel;temperature;humidity
59419;BME280;45224;50.904;6.038;2024-03-23T00:54:27;99229.03;;;6.39;100.00
59419;BME280;45224;50.904;6.038;2024-03-23T00:55:58;99223.88;;;6.36;100.00
59419;BME280;45224;50.904;6.038;2024-03-23T00:57:28;99232.25;;;6.20;100.00
59419;BME280;45224;50.904;6.038;2024-03-23T00:58:59;99246.97;;;6.36;100.00
59419;BME280;45224;50.904;6.038;2024-03-23T01:00:29;99242.59;;;6.26;100.00
59419;BME280;45224;50.904;6.038;2024-03-23T01:01:59;99231.28;;;6.04;100.00
59419;BME280;45224;50.904;6.038;2024-03-23T01:03:30;99220.16;;;6.03;100.00
59419;BME280;45224;50.904;6.038;2024-03-23T01:05:01;99226.34;;;6.26;100.00
59419;BME280;45224;50.904;6.038;2024-03-23T01:06:31;99237.13;;;5.92;100.00
59419;BME280;45224;50.904;6.038;2024-03-23T01:08:02;99232.44;;;5.53;100.00
59419;BME280;45224;50.904;6.038;2024-03-23T01:09:32;99233.28;;;5.53;100.00
59419;BME280;45224;50.904;6.038;2024-03-23T01:11:03;99242.78;;;5.60;100.00
59419;BME280;45224;50.904;6.038;2024-03-23T01:12:34;99248.72;;;5.56;100.00
59419;BME280;45224;50.904;6.038;2024-03-23T01:14:05;99237.81;;;5.76;100.00
59419;BME280;45224;50.904;6.038;2024-03-23T01:15:36;99242.03;;;5.71;100.00
59419;BME280;45224;50.904;6.038;2024-03-23T01:17:07;99240.22;;;5.63;100.00
59419;BME280;45224;50.904;6.038;2024-03-23T01:18:38;99248.91;;;5.75;100.00
59419;BME280;45224;50.904;6.038;2024-03-23T01:20:08;99240.47;;;5.85;100.00
59419;BME280;45224;50.904;6.038;2024-03-23T01:21:39;99238.38;;;5.50;100.00
59419;BME280;45224;50.904;6.038;2024-03-23T01:23:09;99246.13;;;5.55;100.00
59419;BME280;45224;50.904;6.038;2024-03-23T01:24:40;99243.66;;;5.62;100.00
59419;BME280;45224;50.904;6.038;2024-03-23T01:26:10;99232.59;;;5.68;100.00
59419;BME280;45224;50.904;6.038;2024-03-23T01:27:41;99241.88;;;5.57;100.00
59419;BME280;45224;50.904;6.038;2024-03-23T01:29:11;99233.41;;;5.64;100.00
59419;BME280;45224;50.904;6.038;2024-03-23T01:30:41;99228.28;;;5.64;100.00
59419;BME280;45224;50.904;6.038;2024-03-23T01:32:12;99228.19;;;5.56;100.00
59419;BME280;45224;50.904;6.038;2024-03-23T01:33:42;99235.84;;;5.53;100.00
59419;BME280;45224;50.904;6.038;2024-03-23T01:35:13;99226.41;;;5.49;100.00
59419;BME280;45224;50.904;6.038;2024-03-23T01:36:43;99236.72;;;5.55;100.00
59419;BME280;45224;50.904;6.038;2024-03-23T01:38:13;99235.13;;;5.66;100.00
59419;BME280;45224;50.904;6.038;2024-03-23T01:39:44;99227.63;;;5.83;100.00
59419;BME280;45224;50.904;6.038;2024-03-23T01:41:14;99230.19;;;5.82;100.00
59419;BME280;45224;50.904;6.038;2024-03-23T01:42:56;99222.50;;;5.82;100.00
59419;BME280;45224;50.904;6.038;2024-03-23T01:44:26;99221.66;;;5.88;100.00
59419;BME280;45224;50.904;6.038;2024-03-23T01:45:56;99209.81;;;5.97;100.00
59419;BME280;45224;50.904;6.038;2024-03-23T01:47:27;99217.59;;;6.05;100.00
59419;BME280;45224;50.904;6.038;2024-03-23T01:48:57;99212.53;;;6.11;100.00
59419;BME280;45224;50.904;6.038;2024-03-23T01:50:30;99206.50;;;6.08;100.00
59419;BME280;45224;50.904;6.038;2024-03-23T01:52:03;99212.53;;;6.13;100.00
59419;BME280;45224;50.904;6.038;2024-03-23T01:53:34;99208.34;;;6.24;100.00
59419;BME280;45224;50.904;6.038;2024-03-23T01:55:04;99213.53;;;6.30;100.00
59419;BME280;45224;50.904;6.038;2024-03-23T01:56:35;99209.22;;;6.28;100.00
59419;BME280;45224;50.904;6.038;2024-03-23T01:58:06;99215.28;;;6.36;100.00
59419;BME280;45224;50.904;6.038;2024-03-23T01:59:37;99209.31;;;6.38;100.00
59419;BME280;45224;50.904;6.038;2024-03-23T02:01:07;99221.38;;;6.50;100.00
59419;BME280;45224;50.904;6.038;2024-03-23T02:02:47;99219.72;;;6.55;100.00
59419;BME280;45224;50.904;6.038;2024-03-23T02:04:17;99222.31;;;6.60;100.00
59419;BME280;45224;50.904;6.038;2024-03-23T02:05:48;99222.34;;;6.63;100.00
59419;BME280;45224;50.904;6.038;2024-03-23T02:07:18;99224.97;;;6.71;100.00
59419;BME280;45224;50.904;6.038;2024-03-23T02:08:49;99221.56;;;6.72;100.00
59419;BME280;45224;50.904;6.038;2024-03-23T02:10:19;99219.84;;;6.74;100.00
59419;BME280;45224;50.904;6.038;2024-03-23T02:11:50;99217.31;;;6.79;100.00
59419;BME280;45224;50.904;6.038;2024-03-23T02:13:20;99212.16;;;6.79;100.00
59419;BME280;45224;50.904;6.038;2024-03-23T02:14:51;99212.22;;;6.85;100.00
59419;BME280;45224;50.904;6.038;2024-03-23T02:16:21;99217.34;;;6.88;100.00
59419;BME280;45224;50.904;6.038;2024-03-23T02:17:52;99220.78;;;6.88;100.00
59419;BME280;45224;50.904;6.038;2024-03-23T02:19:22;99230.22;;;6.91;100.00
59419;BME280;45224;50.904;6.038;2024-03-23T02:20:52;99231.09;;;6.91;100.00
59419;BME280;45224;50.904;6.038;2024-03-23T02:22:23;99227.66;;;6.92;100.00
59419;BME280;45224;50.904;6.038;2024-03-23T02:23:53;99230.25;;;6.95;100.00
59419;BME280;45224;50.904;6.038;2024-03-23T02:25:24;99229.41;;;6.98;100.00
59419;BME280;45224;50.904;6.038;2024-03-23T02:26:54;99220.00;;;7.00;100.00
59419;BME280;45224;50.904;6.038;2024-03-23T02:28:25;99206.31;;;7.01;100.00
59419;BME280;45224;50.904;6.038;2024-03-23T02:29:55;99212.31;;;7.05;100.00
59419;BME280;45224;50.904;6.038;2024-03-23T02:31:26;99208.88;;;7.04;100.00
59419;BME280;45224;50.904;6.038;2024-03-23T02:32:57;99211.47;;;7.06;100.00
59419;BME280;45224;50.904;6.038;2024-03-23T02:34:27;99208.03;;;7.07;100.00
59419;BME280;45224;50.904;6.038;2024-03-23T02:35:57;99208.03;;;7.07;100.00
59419;BME280;45224;50.904;6.038;2024-03-23T02:37:28;99200.31;;;7.08;100.00
59419;BME280;45224;50.904;6.038;2024-03-23T02:38:58;99197.75;;;7.07;100.00
59419;BME280;45224;50.904;6.038;2024-03-23T02:40:29;99201.19;;;7.07;100.00
59419;BME280;45224;50.904;6.038;2024-03-23T02:41:59;99208.88;;;7.04;100.00
59419;BME280;45224;50.904;6.038;2024-03-23T02:43:30;99202.84;;;6.99;100.00
59419;BME280;45224;50.904;6.038;2024-03-23T02:45:00;99213.16;;;6.98;100.00
59419;BME280;45224;50.904;6.038;2024-03-23T02:46:30;99212.28;;;7.00;100.00
59419;BME280;45224;50.904;6.038;2024-03-23T02:48:01;99208.88;;;7.01;100.00
59419;BME280;45224;50.904;6.038;2024-03-23T02:49:31;99197.69;;;6.99;100.00
59419;BME280;45224;50.904;6.038;2024-03-23T02:51:02;99186.56;;;6.97;100.00
59419;BME280;45224;50.904;6.038;2024-03-23T02:52:32;99176.28;;;6.97;100.00
59419;BME280;45224;50.904;6.038;2024-03-23T02:54:03;99163.44;;;7.02;100.00
59419;BME280;45224;50.904;6.038;2024-03-23T02:55:33;99170.31;;;7.03;100.00
59419;BME280;45224;50.904;6.038;2024-03-23T02:57:04;99170.31;;;7.01;100.00
59419;BME280;45224;50.904;6.038;2024-03-23T02:58:35;99172.91;;;7.04;100.00
59419;BME280;45224;50.904;6.038;2024-03-23T03:00:05;99167.72;;;6.98;100.00
59419;BME280;45224;50.904;6.038;2024-03-23T03:01:37;99164.31;;;7.02;100.00
59419;BME280;45224;50.904;6.038;2024-03-23T03:03:07;99172.00;;;6.99;100.00
59419;BME280;45224;50.904;6.038;2024-03-23T03:04:39;99172.88;;;7.01;100.00
59419;BME280;45224;50.904;6.038;2024-03-23T03:06:09;99173.72;;;7.02;100.00
59419;BME280;45224;50.904;6.038;2024-03-23T03:07:39;99167.75;;;7.01;100.00
59419;BME280;45224;50.904;6.038;2024-03-23T03:09:11;99178.84;;;6.95;100.00
59419;BME280;45224;50.904;6.038;2024-03-23T03:10:41;99179.72;;;6.96;100.00
59419;BME280;45224;50.904;6.038;2024-03-23T03:12:11;99181.41;;;6.97;100.00
59419;BME280;45224;50.904;6.038;2024-03-23T03:13:42;99181.41;;;6.95;100.00
59419;BME280;45224;50.904;6.038;2024-03-23T03:15:12;99183.97;;;6.92;100.00
59419;BME280;45224;50.904;6.038;2024-03-23T03:16:43;99191.66;;;6.91;100.00
59419;BME280;45224;50.904;6.038;2024-03-23T03:18:13;99197.69;;;6.90;100.00
59419;BME280;45224;50.904;6.038;2024-03-23T03:19:44;99195.91;;;6.83;100.00
59419;BME280;45224;50.904;6.038;2024-03-23T03:21:15;99207.94;;;6.85;100.00
59419;BME280;45224;50.904;6.038;2024-03-23T03:22:46;99208.75;;;6.83;100.00
59419;BME280;45224;50.904;6.038;2024-03-23T03:24:17;99212.22;;;6.85;100.00
59419;BME280;45224;50.904;6.038;2024-03-23T03:25:47;99207.88;;;6.76;100.00
59419;BME280;45224;50.904;6.038;2024-03-23T03:27:18;99209.59;;;6.79;100.00
59419;BME280;45224;50.904;6.038;2024-03-23T03:28:48;99209.59;;;6.75;100.00
59419;BME280;45224;50.904;6.038;2024-03-23T03:30:19;99207.88;;;6.78;100.00
59419;BME280;45224;50.904;6.038;2024-03-23T03:31:49;99217.31;;;6.77;100.00
59419;BME280;45224;50.904;6.038;2024-03-23T03:33:20;99215.53;;;6.71;100.00
59419;BME280;45224;50.904;6.038;2024-03-23T03:34:50;99219.00;;;6.73;100.00
59419;BME280;45224;50.904;6.038;2024-03-23T03:36:21;99212.13;;;6.72;100.00
59419;BME280;45224;50.904;6.038;2024-03-23T03:37:51;99217.22;;;6.66;100.00
59419;BME280;45224;50.904;6.038;2024-03-23T03:39:22;99205.22;;;6.65;100.00
59419;BME280;45224;50.904;6.038;2024-03-23T03:40:52;99206.13;;;6.70;100.00
59419;BME280;45224;50.904;6.038;2024-03-23T03:42:23;99209.53;;;6.69;100.00
59419;BME280;45224;50.904;6.038;2024-03-23T03:43:53;99206.09;;;6.67;100.00
59419;BME280;45224;50.904;6.038;2024-03-23T03:45:25;99212.09;;;6.66;100.00
59419;BME280;45224;50.904;6.038;2024-03-23T03:46:55;99205.22;;;6.67;100.00
59419;BME280;45224;50.904;6.038;2024-03-23T03:48:26;99219.81;;;6.68;100.00
59419;BME280;45224;50.904;6.038;2024-03-23T03:49:57;99206.13;;;6.69;100.00
59419;BME280;45224;50.904;6.038;2024-03-23T03:51:27;99224.97;;;6.71;100.00
59419;BME280;45224;50.904;6.038;2024-03-23T03:52:58;99215.53;;;6.71;100.00
59419;BME280;45224;50.904;6.038;2024-03-23T03:54:28;99212.06;;;6.65;100.00
59419;BME280;45224;50.904;6.038;2024-03-23T03:56:02;99211.25;;;6.67;100.00
59419;BME280;45224;50.904;6.038;2024-03-23T03:57:32;99215.50;;;6.68;100.00
59419;BME280;45224;50.904;6.038;2024-03-23T03:59:03;99202.66;;;6.67;100.00
59419;BME280;45224;50.904;6.038;2024-03-23T04:00:33;99196.59;;;6.57;100.00
59419;BME280;45224;50.904;6.038;2024-03-23T04:02:03;99202.59;;;6.54;100.00
59419;BME280;45224;50.904;6.038;2024-03-23T04:03:34;99202.53;;;6.45;100.00
59419;BME280;45224;50.904;6.038;2024-03-23T04:05:05;99206.84;;;6.48;100.00
59419;BME280;45224;50.904;6.038;2024-03-23T04:06:35;99195.66;;;6.39;100.00
59419;BME280;45224;50.904;6.038;2024-03-23T04:08:07;99202.41;;;6.30;100.00
59419;BME280;45224;50.904;6.038;2024-03-23T04:09:37;99206.72;;;6.32;100.00
59419;BME280;45224;50.904;6.038;2024-03-23T04:11:08;99209.31;;;6.35;100.00
59419;BME280;45224;50.904;6.038;2024-03-23T04:12:38;99205.81;;;6.26;100.00
59419;BME280;45224;50.904;6.038;2024-03-23T04:14:09;99199.84;;;6.28;100.00
59419;BME280;45224;50.904;6.038;2024-03-23T04:15:39;99200.72;;;6.30;100.00
59419;BME280;45224;50.904;6.038;2024-03-23T04:17:10;99207.53;;;6.31;100.00
59419;BME280;45224;50.904;6.038;2024-03-23T04:18:40;99205.81;;;6.27;100.00
59419;BME280;45224;50.904;6.038;2024-03-23T04:20:11;99206.69;;;6.29;100.00
59419;BME280;45224;50.904;6.038;2024-03-23T04:21:43;99203.25;;;6.29;100.00
59419;BME280;45224;50.904;6.038;2024-03-23T04:23:14;99202.38;;;6.24;100.00
59419;BME280;45224;50.904;6.038;2024-03-23T04:24:45;99206.63;;;6.23;100.00
59419;BME280;45224;50.904;6.038;2024-03-23T04:26:15;99204.03;;;6.21;100.00
59419;BME280;45224;50.904;6.038;2024-03-23T04:27:46;99204.09;;;6.26;100.00
59419;BME280;45224;50.904;6.038;2024-03-23T04:29:16;99204.88;;;6.17;100.00
59419;BME280;45224;50.904;6.038;2024-03-23T04:30:47;99204.84;;;6.13;100.00
59419;BME280;45224;50.904;6.038;2024-03-23T04:32:17;99194.59;;;6.16;100.00
59419;BME280;45224;50.904;6.038;2024-03-23T04:33:48;99194.59;;;6.16;100.00
59419;BME280;45224;50.904;6.038;2024-03-23T04:35:18;99200.50;;;6.09;100.00
59419;BME280;45224;50.904;6.038;2024-03-23T04:36:50;99201.44;;;6.14;100.00
59419;BME280;45224;50.904;6.038;2024-03-23T04:38:20;99199.75;;;6.17;100.00
59419;BME280;45224;50.904;6.038;2024-03-23T04:39:51;99197.09;;;6.10;100.00
59419;BME280;45224;50.904;6.038;2024-03-23T04:41:21;99195.38;;;6.09;100.00
59419;BME280;45224;50.904;6.038;2024-03-23T04:42:51;99188.47;;;6.00;100.00
59419;BME280;45224;50.904;6.038;2024-03-23T04:44:22;99197.09;;;6.08;100.00
59419;BME280;45224;50.904;6.038;2024-03-23T04:45:52;99199.69;;;6.10;100.00
59419;BME280;45224;50.904;6.038;2024-03-23T04:47:23;99196.22;;;6.05;100.00
59419;BME280;45224;50.904;6.038;2024-03-23T04:48:53;99197.91;;;6.02;100.00
59419;BME280;45224;50.904;6.038;2024-03-23T04:50:24;99195.34;;;6.01;100.00
59419;BME280;45224;50.904;6.038;2024-03-23T04:51:54;99200.34;;;5.92;100.00
59419;BME280;45224;50.904;6.038;2024-03-23T04:53:25;99203.00;;;5.96;100.00
59419;BME280;45224;50.904;6.038;2024-03-23T04:54:59;99206.47;;;6.05;100.00
59419;BME280;45224;50.904;6.038;2024-03-23T04:56:29;99197.91;;;6.02;100.00
59419;BME280;45224;50.904;6.038;2024-03-23T04:58:01;99199.63;;;6.05;100.00
59419;BME280;45224;50.904;6.038;2024-03-23T04:59:32;99197.91;;;6.02;100.00
59419;BME280;45224;50.904;6.038;2024-03-23T05:01:03;99194.41;;;5.94;100.00
59419;BME280;45224;50.904;6.038;2024-03-23T05:02:34;99192.75;;;5.99;100.00
59419;BME280;45224;50.904;6.038;2024-03-23T05:04:05;99192.75;;;5.99;100.00
59419;BME280;45224;50.904;6.038;2024-03-23T05:05:35;99190.00;;;5.84;100.00
59419;BME280;45224;50.904;6.038;2024-03-23T05:07:06;99197.69;;;5.84;100.00
59419;BME280;45224;50.904;6.038;2024-03-23T05:08:36;99201.13;;;5.86;100.00
59419;BME280;45224;50.904;6.038;2024-03-23T05:10:08;99201.03;;;5.74;100.00
59419;BME280;45224;50.904;6.038;2024-03-23T05:11:41;99207.91;;;5.78;100.00
59419;BME280;45224;50.904;6.038;2024-03-23T05:13:14;99206.22;;;5.80;100.00
59419;BME280;45224;50.904;6.038;2024-03-23T05:14:44;99199.38;;;5.79;100.00
59419;BME280;45224;50.904;6.038;2024-03-23T05:16:15;99214.81;;;5.85;100.00
59419;BME280;45224;50.904;6.038;2024-03-23T05:17:45;99203.59;;;5.74;100.00
59419;BME280;45224;50.904;6.038;2024-03-23T05:19:15;99198.44;;;5.72;100.00
59419;BME280;45224;50.904;6.038;2024-03-23T05:20:46;99207.81;;;5.69;100.00
59419;BME280;45224;50.904;6.038;2024-03-23T05:22:16;99201.75;;;5.60;100.00
59419;BME280;45224;50.904;6.038;2024-03-23T05:23:47;99196.63;;;5.60;100.00
59419;BME280;45224;50.904;6.038;2024-03-23T05:25:17;99205.19;;;5.62;100.00
59419;BME280;45224;50.904;6.038;2024-03-23T05:26:48;99206.94;;;5.68;100.00
59419;BME280;45224;50.904;6.038;2024-03-23T05:28:18;99211.25;;;5.71;100.00
59419;BME280;45224;50.904;6.038;2024-03-23T05:29:49;99207.84;;;5.73;100.00
59419;BME280;45224;50.904;6.038;2024-03-23T05:31:26;99207.00;;;5.73;100.00
59419;BME280;45224;50.904;6.038;2024-03-23T05:32:57;99202.72;;;5.72;100.00
59419;BME280;45224;50.904;6.038;2024-03-23T05:34:27;99200.16;;;5.73;100.00
59419;BME280;45224;50.904;6.038;2024-03-23T05:36:00;99209.56;;;5.73;100.00
59419;BME280;45224;50.904;6.038;2024-03-23T05:37:31;99204.34;;;5.65;100.00
59419;BME280;45224;50.904;6.038;2024-03-23T05:39:04;99211.19;;;5.64;100.00
59419;BME280;45224;50.904;6.038;2024-03-23T05:40:34;99217.94;;;5.56;100.00
59419;BME280;45224;50.904;6.038;2024-03-23T05:42:07;99212.84;;;5.59;100.00
59419;BME280;45224;50.904;6.038;2024-03-23T05:43:38;99209.44;;;5.60;100.00
59419;BME280;45224;50.904;6.038;2024-03-23T05:45:08;99207.72;;;5.59;100.00
59419;BME280;45224;50.904;6.038;2024-03-23T05:46:39;99210.97;;;5.43;100.00
59419;BME280;45224;50.904;6.038;2024-03-23T05:48:10;99209.34;;;5.51;100.00
59419;BME280;45224;50.904;6.038;2024-03-23T05:49:40;99215.31;;;5.52;100.00
59419;BME280;45224;50.904;6.038;2024-03-23T05:51:13;99210.19;;;5.50;100.00
59419;BME280;45224;50.904;6.038;2024-03-23T05:52:44;99219.59;;;5.51;100.00
59419;BME280;45224;50.904;6.038;2024-03-23T05:54:14;99214.47;;;5.51;100.00
59419;BME280;45224;50.904;6.038;2024-03-23T05:55:45;99211.09;;;5.57;100.00
59419;BME280;45224;50.904;6.038;2024-03-23T05:57:15;99213.69;;;5.58;100.00
59419;BME280;45224;50.904;6.038;2024-03-23T05:58:46;99207.78;;;5.65;100.00
59419;BME280;45224;50.904;6.038;2024-03-23T06:00:17;99202.72;;;5.72;100.00
59419;BME280;45224;50.904;6.038;2024-03-23T06:01:47;99202.75;;;5.76;100.00
59419;BME280;45224;50.904;6.038;2024-03-23T06:03:18;99209.66;;;5.82;100.00
59419;BME280;45224;50.904;6.038;2024-03-23T06:04:48;99200.31;;;5.89;100.00
59419;BME280;45224;50.904;6.038;2024-03-23T06:06:19;99211.44;;;5.89;100.00
59419;BME280;45224;50.904;6.038;2024-03-23T06:07:49;99216.56;;;5.89;100.00
59419;BME280;45224;50.904;6.038;2024-03-23T06:09:20;99224.16;;;5.78;100.00
59419;BME280;45224;50.904;6.038;2024-03-23T06:10:51;99223.28;;;5.78;100.00
59419;BME280;45224;50.904;6.038;2024-03-23T06:12:22;99229.34;;;5.86;100.00
59419;BME280;45224;50.904;6.038;2024-03-23T06:13:52;99225.16;;;5.93;100.00
59419;BME280;45224;50.904;6.038;2024-03-23T06:15:22;99227.72;;;5.96;100.00
59419;BME280;45224;50.904;6.038;2024-03-23T06:16:53;99226.13;;;5.99;100.00
59419;BME280;45224;50.904;6.038;2024-03-23T06:18:24;99228.75;;;6.06;100.00
59419;BME280;45224;50.904;6.038;2024-03-23T06:19:54;99231.38;;;6.16;100.00
59419;BME280;45224;50.904;6.038;2024-03-23T06:21:24;99229.69;;;6.20;100.00
59419;BME280;45224;50.904;6.038;2024-03-23T06:22:55;99228.88;;;6.21;100.00
59419;BME280;45224;50.904;6.038;2024-03-23T06:24:25;99234.03;;;6.24;100.00
59419;BME280;45224;50.904;6.038;2024-03-23T06:25:56;99229.75;;;6.26;100.00
59419;BME280;45224;50.904;6.038;2024-03-23T06:27:26;99232.41;;;6.35;100.00
59419;BME280;45224;50.904;6.038;2024-03-23T06:28:56;99235.91;;;6.44;100.00
59419;BME280;45224;50.904;6.038;2024-03-23T06:30:27;99232.50;;;6.46;100.00
59419;BME280;45224;50.904;6.038;2024-03-23T06:31:58;99237.66;;;6.52;100.00
59419;BME280;45224;50.904;6.038;2024-03-23T06:33:28;99242.81;;;6.55;100.00
59419;BME280;45224;50.904;6.038;2024-03-23T06:34:58;99236.91;;;6.64;100.00
59419;BME280;45224;50.904;6.038;2024-03-23T06:36:29;99237.78;;;6.69;100.00
59419;BME280;45224;50.904;6.038;2024-03-23T06:38:01;99234.38;;;6.70;100.00
59419;BME280;45224;50.904;6.038;2024-03-23T06:39:31;99236.13;;;6.76;100.00
59419;BME280;45224;50.904;6.038;2024-03-23T06:41:05;99246.47;;;6.87;100.00
59419;BME280;45224;50.904;6.038;2024-03-23T06:42:36;99244.84;;;6.98;100.00
59419;BME280;45224;50.904;6.038;2024-03-23T06:44:06;99253.44;;;7.03;100.00
59419;BME280;45224;50.904;6.038;2024-03-23T06:45:37;99254.34;;;7.15;100.00
59419;BME280;45224;50.904;6.038;2024-03-23T06:47:07;99251.81;;;7.19;100.00
59419;BME280;45224;50.904;6.038;2024-03-23T06:48:38;99279.09;;;6.99;100.00
59419;BME280;45224;50.904;6.038;2024-03-23T06:50:08;99287.53;;;6.78;100.00
59419;BME280;45224;50.904;6.038;2024-03-23T06:51:40;99290.41;;;6.15;100.00
59419;BME280;45224;50.904;6.038;2024-03-23T06:53:11;99270.28;;;5.72;100.00
59419;BME280;45224;50.904;6.038;2024-03-23T06:54:41;99282.09;;;5.61;100.00
59419;BME280;45224;50.904;6.038;2024-03-23T06:56:11;99249.75;;;5.72;100.00
59419;BME280;45224;50.904;6.038;2024-03-23T06:57:42;99235.53;;;5.25;100.00
59419;BME280;45224;50.904;6.038;2024-03-23T06:59:12;99223.91;;;5.57;100.00
59419;BME280;45224;50.904;6.038;2024-03-23T07:00:43;99246.13;;;5.55;100.00
59419;BME280;45224;50.904;6.038;2024-03-23T07:02:13;99251.44;;;5.69;98.55
59419;BME280;45224;50.904;6.038;2024-03-23T07:03:44;99254.00;;;5.70;97.83
59419;BME280;45224;50.904;6.038;2024-03-23T07:05:15;99260.84;;;5.73;98.41
59419;BME280;45224;50.904;6.038;2024-03-23T07:06:45;99260.91;;;5.76;99.26
59419;BME280;45224;50.904;6.038;2024-03-23T07:08:16;99260.13;;;5.83;99.40
59419;BME280;45224;50.904;6.038;2024-03-23T07:09:51;99266.16;;;5.88;100.00
59419;BME280;45224;50.904;6.038;2024-03-23T07:11:23;99251.59;;;5.85;100.00
59419;BME280;45224;50.904;6.038;2024-03-23T07:12:54;99261.00;;;5.85;100.00
59419;BME280;45224;50.904;6.038;2024-03-23T07:14:25;99255.84;;;5.82;100.00
59419;BME280;45224;50.904;6.038;2024-03-23T07:15:55;99249.00;;;5.84;100.00
59419;BME280;45224;50.904;6.038;2024-03-23T07:17:26;99253.38;;;5.91;100.00
59419;BME280;45224;50.904;6.038;2024-03-23T07:18:56;99250.88;;;5.97;100.00
59419;BME280;45224;50.904;6.038;2024-03-23T07:20:27;99244.91;;;5.98;100.00
59419;BME280;45224;50.904;6.038;2024-03-23T07:21:57;99244.13;;;6.09;100.00
59419;BME280;45224;50.904;6.038;2024-03-23T07:23:28;99246.00;;;6.22;100.00
59419;BME280;45224;50.904;6.038;2024-03-23T07:25:01;99245.25;;;6.35;100.00
59419;BME280;45224;50.904;6.038;2024-03-23T07:26:32;99245.34;;;6.48;100.00
59419;BME280;45224;50.904;6.038;2024-03-23T07:28:03;99242.00;;;6.60;100.00
59419;BME280;45224;50.904;6.038;2024-03-23T07:29:33;99239.56;;;6.73;100.00
59419;BME280;45224;50.904;6.038;2024-03-23T07:31:05;99243.03;;;6.88;100.00
59419;BME280;45224;50.904;6.038;2024-03-23T07:32:36;99250.84;;;7.00;100.00
59419;BME280;45224;50.904;6.038;2024-03-23T07:34:06;99250.94;;;7.16;100.00
59419;BME280;45224;50.904;6.038;2024-03-23T07:35:37;99243.25;;;7.28;100.00
59419;BME280;45224;50.904;6.038;2024-03-23T07:37:07;99241.56;;;7.33;100.00
59419;BME280;45224;50.904;6.038;2024-03-23T07:38:40;99241.63;;;7.45;100.00
59419;BME280;45224;50.904;6.038;2024-03-23T07:40:11;99226.25;;;7.64;100.00
59419;BME280;45224;50.904;6.038;2024-03-23T07:41:44;99238.31;;;7.77;100.00
59419;BME280;45224;50.904;6.038;2024-03-23T07:43:15;99234.84;;;7.81;100.00
59419;BME280;45224;50.904;6.038;2024-03-23T07:44:46;99234.91;;;7.97;100.00
59419;BME280;45224;50.904;6.038;2024-03-23T07:46:16;99239.22;;;8.01;100.00
59419;BME280;45224;50.904;6.038;2024-03-23T07:47:47;99235.78;;;8.05;100.00
59419;BME280;45224;50.904;6.038;2024-03-23T07:49:17;99237.50;;;8.11;100.00
59419;BME280;45224;50.904;6.038;2024-03-23T07:51:06;99241.78;;;7.98;100.00
59419;BME280;45224;50.904;6.038;2024-03-23T07:52:36;99234.91;;;7.95;100.00
59419;BME280;45224;50.904;6.038;2024-03-23T07:54:07;99240.06;;;8.00;100.00
59419;BME280;45224;50.904;6.038;2024-03-23T07:55:37;99242.59;;;7.91;100.00
59419;BME280;45224;50.904;6.038;2024-03-23T07:57:08;99239.22;;;7.98;100.00
59419;BME280;45224;50.904;6.038;2024-03-23T07:58:38;99234.94;;;8.12;100.00
59419;BME280;45224;50.904;6.038;2024-03-23T08:00:09;99246.06;;;8.00;100.00
59419;BME280;45224;50.904;6.038;2024-03-23T08:01:40;99252.06;;;8.09;100.00
59419;BME280;45224;50.904;6.038;2024-03-23T08:03:10;99251.22;;;8.10;100.00
59419;BME280;45224;50.904;6.038;2024-03-23T08:04:41;99250.38;;;8.03;100.00
59419;BME280;45224;50.904;6.038;2024-03-23T08:06:16;99247.81;;;8.06;100.00
59419;BME280;45224;50.904;6.038;2024-03-23T08:07:50;99241.78;;;8.10;100.00
59419;BME280;45224;50.904;6.038;2024-03-23T08:09:21;99247.78;;;8.04;100.00
59419;BME280;45224;50.904;6.038;2024-03-23T08:10:51;99242.66;;;8.20;100.00
59419;BME280;45224;50.904;6.038;2024-03-23T08:12:22;99245.22;;;8.06;100.00
59419;BME280;45224;50.904;6.038;2024-03-23T08:13:53;99251.25;;;8.16;100.00
59419;BME280;45224;50.904;6.038;2024-03-23T08:15:23;99258.97;;;8.14;100.00
59419;BME280;45224;50.904;6.038;2024-03-23T08:16:54;99247.78;;;8.15;100.00
59419;BME280;45224;50.904;6.038;2024-03-23T08:18:25;99249.50;;;8.09;100.00
59419;BME280;45224;50.904;6.038;2024-03-23T08:19:55;99252.09;;;8.21;100.00
59419;BME280;45224;50.904;6.038;2024-03-23T08:21:26;99251.25;;;8.34;100.00
59419;BME280;45224;50.904;6.038;2024-03-23T08:22:57;99253.81;;;8.39;99.95
59419;BME280;45224;50.904;6.038;2024-03-23T08:24:28;99248.66;;;8.30;99.57
59419;BME280;45224;50.904;6.038;2024-03-23T08:25:59;99253.81;;;8.33;100.00
59419;BME280;45224;50.904;6.038;2024-03-23T08:27:30;99254.69;;;8.21;99.75
59419;BME280;45224;50.904;6.038;2024-03-23T08:29:00;99255.53;;;8.29;98.26
59419;BME280;45224;50.904;6.038;2024-03-23T08:30:31;99252.97;;;8.29;96.41
59419;BME280;45224;50.904;6.038;2024-03-23T08:32:01;99265.88;;;8.49;98.08
59419;BME280;45224;50.904;6.038;2024-03-23T08:33:32;99254.72;;;8.63;96.61
59419;BME280;45224;50.904;6.038;2024-03-23T08:35:03;99268.47;;;8.62;95.49
59419;BME280;45224;50.904;6.038;2024-03-23T08:36:34;99257.25;;;8.81;96.46
59419;BME280;45224;50.904;6.038;2024-03-23T08:38:04;99258.09;;;8.95;96.79
59419;BME280;45224;50.904;6.038;2024-03-23T08:39:35;99253.84;;;8.91;95.07
59419;BME280;45224;50.904;6.038;2024-03-23T08:41:06;99253.78;;;8.98;95.28
59419;BME280;45224;50.904;6.038;2024-03-23T08:42:37;99258.09;;;9.11;94.98
59419;BME280;45224;50.904;6.038;2024-03-23T08:44:08;99263.19;;;9.20;93.43
59419;BME280;45224;50.904;6.038;2024-03-23T08:45:38;99255.41;;;9.34;93.39
59419;BME280;45224;50.904;6.038;2024-03-23T08:47:09;99255.41;;;9.42;92.65
59419;BME280;45224;50.904;6.038;2024-03-23T08:48:43;99266.56;;;9.42;92.14
59419;BME280;45224;50.904;6.038;2024-03-23T08:50:15;99269.16;;;9.35;89.17
59419;BME280;45224;50.904;6.038;2024-03-23T08:51:46;99257.91;;;9.54;89.55
59419;BME280;45224;50.904;6.038;2024-03-23T08:53:16;99253.50;;;9.78;90.57
59419;BME280;45224;50.904;6.038;2024-03-23T08:54:46;99260.44;;;9.69;88.96